createdAt,value
2017-10-06T00:00:14.597Z,69.70
2017-10-06T00:02:42.034Z,70.20
2017-10-06T00:05:09.481Z,70.10
2017-10-06T00:07:36.925Z,69.60
2017-10-06T00:10:04.362Z,69.30
2017-10-06T00:12:31.805Z,69.40
2017-10-06T00:14:59.262Z,69.30
2017-10-06T00:17:26.716Z,69.50
2017-10-06T00:19:54.917Z,69.30
2017-10-06T00:22:22.357Z,69.30
2017-10-06T00:24:49.797Z,69.20
2017-10-06T00:27:17.246Z,69.70
2017-10-06T00:29:44.691Z,69.60
2017-10-06T00:32:12.146Z,68.90
2017-10-06T00:34:39.602Z,68.70
2017-10-06T00:37:07.048Z,68.90
2017-10-06T00:39:34.499Z,69.00
2017-10-06T00:42:01.955Z,68.70
2017-10-06T00:44:29.380Z,67.70
2017-10-06T00:46:56.827Z,68.00
2017-10-06T00:49:24.290Z,67.10
2017-10-06T00:51:52.499Z,68.10
2017-10-06T00:54:19.955Z,68.10
2017-10-06T00:56:47.390Z,68.10
2017-10-06T00:59:14.829Z,67.70
2017-10-06T01:01:42.282Z,67.40
2017-10-06T01:04:09.717Z,67.60
2017-10-06T01:06:37.158Z,66.80
2017-10-06T01:09:04.613Z,67.70
2017-10-06T01:11:32.058Z,67.90
2017-10-06T01:13:59.525Z,66.60
2017-10-06T01:16:27.729Z,66.50
2017-10-06T01:18:55.180Z,67.00
2017-10-06T01:21:22.667Z,67.20
2017-10-06T01:23:50.113Z,67.70
2017-10-06T01:26:17.556Z,67.90
2017-10-06T01:28:44.993Z,67.70
2017-10-06T01:31:12.437Z,68.10
2017-10-06T01:33:39.882Z,67.30
2017-10-06T01:36:07.338Z,66.80
2017-10-06T01:38:35.549Z,66.20
2017-10-06T01:41:02.993Z,66.20
2017-10-06T01:43:30.437Z,67.00
2017-10-06T01:45:57.884Z,65.90
2017-10-06T01:48:25.392Z,66.40
2017-10-06T01:50:52.821Z,66.30
2017-10-06T01:53:20.264Z,65.70
2017-10-06T01:55:47.725Z,65.50
2017-10-06T01:58:15.177Z,65.30
2017-10-06T02:00:42.620Z,66.40
2017-10-06T02:03:10.089Z,66.20
2017-10-06T02:05:37.524Z,66.90
2017-10-06T02:08:04.971Z,66.30
2017-10-06T02:10:32.409Z,66.80
2017-10-06T02:12:59.856Z,66.00
2017-10-06T02:15:27.298Z,66.50
2017-10-06T02:17:54.736Z,65.60
2017-10-06T02:20:22.189Z,65.60
2017-10-06T02:22:49.637Z,65.30
2017-10-06T02:25:17.090Z,65.60
2017-10-06T02:27:44.534Z,66.10
2017-10-06T02:30:11.988Z,66.10
2017-10-06T02:32:39.422Z,66.40
2017-10-06T02:35:06.870Z,66.50
2017-10-06T02:37:35.075Z,66.80
2017-10-06T02:40:02.531Z,66.00
2017-10-06T02:42:29.959Z,65.90
2017-10-06T02:44:57.392Z,66.50
2017-10-06T02:47:24.858Z,66.90
2017-10-06T02:49:52.302Z,66.80
2017-10-06T02:52:19.745Z,67.30
2017-10-06T02:54:47.196Z,66.30
2017-10-06T02:57:14.654Z,66.50
2017-10-06T02:59:42.097Z,66.70
2017-10-06T03:02:09.554Z,67.20
2017-10-06T03:04:37.764Z,67.40
2017-10-06T03:07:05.202Z,67.30
2017-10-06T03:09:32.644Z,67.00
2017-10-06T03:12:00.096Z,67.10
2017-10-06T03:14:27.554Z,67.20
2017-10-06T03:16:54.985Z,67.20
2017-10-06T03:19:22.428Z,67.00
2017-10-06T03:21:49.966Z,66.80
2017-10-06T03:24:17.438Z,67.00
2017-10-06T03:26:44.872Z,66.80
2017-10-06T03:29:12.317Z,66.80
2017-10-06T03:31:39.779Z,66.70
2017-10-06T03:34:07.221Z,66.40
2017-10-06T03:36:34.665Z,67.00
2017-10-06T03:39:02.111Z,67.80
2017-10-06T03:41:30.339Z,67.10
2017-10-06T03:43:57.776Z,67.00
2017-10-06T03:46:25.221Z,67.50
2017-10-06T03:48:53.424Z,67.80
2017-10-06T03:51:21.658Z,67.70
2017-10-06T03:53:49.097Z,67.70
2017-10-06T03:56:16.534Z,67.60
2017-10-06T03:58:43.979Z,67.50
2017-10-06T04:01:11.413Z,67.20
2017-10-06T04:03:39.626Z,67.40
2017-10-06T04:06:08.754Z,67.80
2017-10-06T04:08:36.210Z,67.80
2017-10-06T04:11:03.648Z,68.60
2017-10-06T04:13:31.090Z,69.00
2017-10-06T04:15:58.532Z,69.70
2017-10-06T04:18:25.973Z,69.60
2017-10-06T04:20:53.413Z,69.20
2017-10-06T04:23:20.866Z,69.70
2017-10-06T04:25:48.328Z,69.60
2017-10-06T04:28:15.777Z,69.90
2017-10-06T04:30:43.988Z,69.90
2017-10-06T04:33:11.441Z,69.80
2017-10-06T04:35:38.889Z,70.10
2017-10-06T04:38:06.333Z,70.30
2017-10-06T04:40:33.807Z,70.00
2017-10-06T04:43:01.250Z,70.20
2017-10-06T04:45:29.461Z,70.90
2017-10-06T04:47:56.913Z,70.90
2017-10-06T04:50:24.370Z,71.40
2017-10-06T04:52:51.818Z,71.70
2017-10-06T04:55:19.278Z,71.40
2017-10-06T04:57:46.716Z,72.30
2017-10-06T05:00:14.955Z,72.40
2017-10-06T05:02:42.446Z,72.30
2017-10-06T05:07:44.548Z,72.70
2017-10-06T05:10:11.990Z,72.40
2017-10-06T05:12:39.448Z,72.40
2017-10-06T05:15:06.879Z,72.50
2017-10-06T05:17:34.377Z,72.20
2017-10-06T05:20:01.813Z,71.50
2017-10-06T05:22:29.270Z,71.20
2017-10-06T05:24:56.844Z,71.40
2017-10-06T05:27:24.281Z,70.80
2017-10-06T05:29:51.728Z,70.30
2017-10-06T05:32:19.190Z,70.00
2017-10-06T05:34:46.622Z,70.30
2017-10-06T05:37:14.077Z,70.20
2017-10-06T05:39:41.538Z,70.40
2017-10-06T05:42:09.744Z,70.30
2017-10-06T05:44:37.201Z,70.30
2017-10-06T05:47:04.636Z,70.20
2017-10-06T05:49:32.154Z,69.80
2017-10-06T05:51:59.594Z,70.20
2017-10-06T05:54:27.042Z,70.50
2017-10-06T05:56:54.487Z,70.40
2017-10-06T05:59:21.951Z,68.50
2017-10-06T06:01:49.406Z,68.60
2017-10-06T06:04:16.856Z,68.10
2017-10-06T06:06:44.342Z,67.80
2017-10-06T06:09:12.557Z,68.00
2017-10-06T06:11:40.026Z,68.10
2017-10-06T06:14:08.285Z,67.70
2017-10-06T06:16:35.718Z,67.70
2017-10-06T06:19:03.196Z,67.70
2017-10-06T06:21:31.433Z,66.70
2017-10-06T06:23:58.869Z,66.80
2017-10-06T06:26:26.313Z,66.30
2017-10-06T06:28:53.760Z,66.10
2017-10-06T06:31:21.205Z,65.30
2017-10-06T06:33:48.653Z,65.40
2017-10-06T06:36:16.092Z,65.20
2017-10-06T06:38:43.538Z,65.70
2017-10-06T06:41:10.992Z,66.50
2017-10-06T06:43:39.198Z,64.70
2017-10-06T06:46:06.644Z,64.70
2017-10-06T06:48:34.082Z,64.70
2017-10-06T06:51:01.533Z,64.60
2017-10-06T06:53:28.969Z,64.00
2017-10-06T06:55:56.433Z,63.50
2017-10-06T06:58:23.878Z,64.00
2017-10-06T07:00:51.330Z,63.50
2017-10-06T07:03:18.774Z,63.40
2017-10-06T07:05:46.214Z,62.50
2017-10-06T07:08:13.653Z,62.60
2017-10-06T07:10:41.093Z,62.70
2017-10-06T07:13:08.537Z,62.20
2017-10-06T07:15:35.978Z,62.30
2017-10-06T07:18:03.437Z,61.30
2017-10-06T07:20:30.875Z,61.00
2017-10-06T07:22:58.320Z,60.90
2017-10-06T07:25:25.769Z,61.40
2017-10-06T07:27:53.220Z,60.20
2017-10-06T07:30:21.434Z,59.80
2017-10-06T07:32:48.891Z,59.80
2017-10-06T07:35:16.325Z,60.40
2017-10-06T07:37:43.857Z,60.20
2017-10-06T07:40:11.402Z,59.80
2017-10-06T07:42:38.826Z,59.80
2017-10-06T07:45:06.270Z,58.80
2017-10-06T07:47:33.714Z,58.70
2017-10-06T07:50:01.172Z,58.80
2017-10-06T07:52:29.382Z,58.60
2017-10-06T07:54:57.585Z,58.70
2017-10-06T07:57:25.025Z,58.70
2017-10-06T07:59:52.473Z,58.20
2017-10-06T08:02:19.918Z,57.80
2017-10-06T08:04:47.362Z,57.70
2017-10-06T08:07:14.807Z,56.40
2017-10-06T08:09:42.249Z,56.20
2017-10-06T08:12:09.689Z,55.70
2017-10-06T08:14:37.139Z,56.10
2017-10-06T08:17:04.574Z,56.20
2017-10-06T08:19:32.059Z,54.50
2017-10-06T08:21:59.493Z,53.90
2017-10-06T08:24:26.934Z,53.80
2017-10-06T08:26:54.397Z,53.70
2017-10-06T08:29:22.749Z,53.60
2017-10-06T08:31:50.989Z,54.40
2017-10-06T08:34:18.438Z,53.80
2017-10-06T08:36:45.898Z,53.90
2017-10-06T08:39:13.374Z,53.90
2017-10-06T08:41:40.877Z,53.70
2017-10-06T08:44:08.330Z,52.50
2017-10-06T08:46:35.769Z,53.20
2017-10-06T08:49:03.205Z,51.50
2017-10-06T08:51:30.657Z,51.30
2017-10-06T08:53:58.865Z,51.50
2017-10-06T08:56:26.293Z,51.50
2017-10-06T08:58:53.790Z,50.60
2017-10-06T09:01:21.259Z,51.00
2017-10-06T09:03:49.494Z,50.10
2017-10-06T09:06:16.928Z,50.10
2017-10-06T09:08:44.493Z,49.40
2017-10-06T09:11:11.930Z,49.80
2017-10-06T09:13:39.385Z,48.80
2017-10-06T09:16:07.584Z,48.20
2017-10-06T09:18:35.029Z,48.10
2017-10-06T09:21:02.480Z,48.80
2017-10-06T09:23:29.924Z,49.10
2017-10-06T09:25:57.358Z,48.40
2017-10-06T09:28:24.806Z,49.30
2017-10-06T09:30:52.240Z,49.70
2017-10-06T09:33:19.680Z,49.10
2017-10-06T09:35:47.117Z,49.90
2017-10-06T09:38:14.589Z,49.40
2017-10-06T09:40:42.790Z,50.50
2017-10-06T09:43:11.002Z,50.70
2017-10-06T09:45:38.451Z,50.70
2017-10-06T09:48:05.895Z,49.60
2017-10-06T09:50:33.341Z,49.90
2017-10-06T09:53:00.781Z,48.90
2017-10-06T09:55:28.237Z,48.50
2017-10-06T09:57:55.676Z,49.00
2017-10-06T10:00:23.117Z,47.90
2017-10-06T10:02:50.569Z,47.90
2017-10-06T10:05:18.006Z,47.30
2017-10-06T10:07:45.445Z,47.10
2017-10-06T10:10:12.902Z,47.00
2017-10-06T10:12:40.342Z,46.90
2017-10-06T10:15:07.811Z,46.70
2017-10-06T10:17:36.010Z,46.60
2017-10-06T10:20:03.457Z,46.40
2017-10-06T10:22:30.924Z,46.50
2017-10-06T10:24:58.360Z,46.10
2017-10-06T10:27:25.833Z,46.60
2017-10-06T10:29:53.254Z,46.80
2017-10-06T10:32:20.705Z,46.60
2017-10-06T10:34:49.644Z,46.20
2017-10-06T10:37:17.094Z,46.20
2017-10-06T10:39:44.537Z,45.70
2017-10-06T10:42:12.006Z,46.70
2017-10-06T10:44:39.553Z,46.40
2017-10-06T10:47:07.001Z,46.80
2017-10-06T10:49:34.545Z,46.30
2017-10-06T10:52:02.006Z,46.80
2017-10-06T10:54:30.207Z,46.20
2017-10-06T10:56:57.661Z,46.20
2017-10-06T10:59:25.122Z,47.00
2017-10-06T11:01:52.661Z,48.20
2017-10-06T11:04:20.114Z,47.60
2017-10-06T11:06:47.549Z,47.30
2017-10-06T11:09:14.997Z,46.70
2017-10-06T11:11:42.437Z,45.60
2017-10-06T11:14:09.893Z,45.90
2017-10-06T11:16:37.428Z,46.00
2017-10-06T11:19:04.969Z,45.10
2017-10-06T11:21:32.404Z,44.80
2017-10-06T11:23:59.960Z,44.60
2017-10-06T11:26:27.401Z,45.40
2017-10-06T11:28:54.850Z,44.40
2017-10-06T11:31:22.291Z,44.20
2017-10-06T11:33:49.726Z,44.30
2017-10-06T11:36:17.161Z,44.60
2017-10-06T11:38:44.625Z,44.60
2017-10-06T11:41:12.852Z,48.20
2017-10-06T11:43:40.290Z,47.70
2017-10-06T11:46:07.730Z,46.90
2017-10-06T11:48:35.173Z,49.30
2017-10-06T11:51:02.635Z,52.80
2017-10-06T11:53:30.072Z,53.50
2017-10-06T11:55:57.513Z,54.90
2017-10-06T11:58:24.984Z,54.40
2017-10-06T12:00:52.450Z,54.60
2017-10-06T12:03:20.637Z,55.50
2017-10-06T12:05:48.077Z,55.50
2017-10-06T12:08:15.638Z,55.50
2017-10-06T12:10:43.089Z,54.60
2017-10-06T12:13:10.534Z,53.10
2017-10-06T12:15:37.992Z,53.70
2017-10-06T12:18:05.499Z,53.40
2017-10-06T12:20:32.929Z,54.10
2017-10-06T12:23:00.377Z,54.00
2017-10-06T12:25:27.818Z,54.70
2017-10-06T12:27:55.273Z,55.10
2017-10-06T12:30:22.717Z,55.90
2017-10-06T12:32:50.173Z,57.10
2017-10-06T12:35:17.618Z,57.60
2017-10-06T12:37:45.072Z,56.80
2017-10-06T12:40:12.515Z,57.90
2017-10-06T12:42:39.966Z,58.20
2017-10-06T12:45:07.389Z,57.20
2017-10-06T12:47:34.854Z,57.10
2017-10-06T12:50:02.333Z,56.80
2017-10-06T12:52:29.774Z,54.80
2017-10-06T12:54:57.226Z,55.00
2017-10-06T12:57:24.670Z,54.10
2017-10-06T12:59:52.117Z,54.80
2017-10-06T13:02:19.571Z,53.20
2017-10-06T13:04:47.009Z,52.30
2017-10-06T13:07:14.461Z,53.10
2017-10-06T13:09:41.912Z,53.90
2017-10-06T13:12:09.436Z,54.70
2017-10-06T13:14:36.887Z,54.00
2017-10-06T13:17:04.331Z,54.80
2017-10-06T13:19:31.777Z,54.30
2017-10-06T13:21:59.239Z,56.20
2017-10-06T13:24:26.706Z,58.90
2017-10-06T13:26:54.917Z,61.50
2017-10-06T13:29:22.348Z,61.70
2017-10-06T13:31:49.802Z,64.30
2017-10-06T13:34:17.281Z,64.20
2017-10-06T13:36:44.737Z,66.30
2017-10-06T13:39:12.956Z,69.30
2017-10-06T13:41:40.411Z,69.30
2017-10-06T13:44:07.857Z,67.50
2017-10-06T13:46:35.297Z,69.90
2017-10-06T13:49:02.746Z,70.60
2017-10-06T13:51:30.214Z,69.40
2017-10-06T13:53:58.415Z,70.20
2017-10-06T13:56:25.855Z,70.20
2017-10-06T13:58:53.307Z,68.30
2017-10-06T14:01:20.746Z,66.00
2017-10-06T14:03:48.215Z,66.00
2017-10-06T14:06:15.645Z,67.30
2017-10-06T14:08:43.110Z,66.30
2017-10-06T14:11:10.669Z,66.10
2017-10-06T14:13:38.118Z,68.80
2017-10-06T14:16:06.317Z,68.00
2017-10-06T14:18:33.815Z,68.00
2017-10-06T14:21:01.245Z,66.80
2017-10-06T14:23:28.772Z,66.70
2017-10-06T14:25:56.968Z,66.20
2017-10-06T14:28:25.226Z,66.80
2017-10-06T14:30:53.439Z,67.00
2017-10-06T14:33:21.149Z,67.00
2017-10-06T14:35:48.596Z,68.20
2017-10-06T14:38:16.053Z,68.50
2017-10-06T14:40:43.493Z,67.10
2017-10-06T14:43:11.001Z,68.40
2017-10-06T14:45:39.221Z,68.70
2017-10-06T14:48:06.657Z,68.20
2017-10-06T14:50:34.589Z,66.60
2017-10-06T14:53:03.014Z,65.10
2017-10-06T14:55:30.484Z,65.40
2017-10-06T14:57:58.727Z,65.70
2017-10-06T15:00:26.945Z,64.60
2017-10-06T15:02:54.394Z,64.60
2017-10-06T15:05:21.845Z,65.80
2017-10-06T15:07:49.297Z,65.40
2017-10-06T15:10:16.741Z,65.60
2017-10-06T15:12:44.177Z,64.20
2017-10-06T15:15:11.644Z,63.50
2017-10-06T15:17:39.085Z,65.20
2017-10-06T15:20:07.297Z,66.10
2017-10-06T15:22:34.741Z,65.90
2017-10-06T15:25:02.177Z,64.30
2017-10-06T15:27:29.636Z,65.00
2017-10-06T15:29:57.068Z,66.00
2017-10-06T15:32:24.550Z,64.80
2017-10-06T15:34:52.102Z,64.30
2017-10-06T15:37:19.549Z,65.90
2017-10-06T15:39:47.761Z,65.20
2017-10-06T15:42:15.238Z,65.20
2017-10-06T15:44:42.685Z,65.90
2017-10-06T15:47:10.133Z,64.40
2017-10-06T15:49:38.402Z,64.60
2017-10-06T15:52:06.656Z,65.00
2017-10-06T15:54:34.098Z,65.00
2017-10-06T15:57:01.551Z,64.50
2017-10-06T15:59:29.754Z,64.10
2017-10-06T16:01:57.209Z,64.20
2017-10-06T16:04:24.662Z,64.80
2017-10-06T16:06:52.114Z,64.40
2017-10-06T16:09:19.576Z,64.90
2017-10-06T16:11:47.029Z,65.70
2017-10-06T16:14:15.262Z,64.40
2017-10-06T16:16:42.706Z,64.40
2017-10-06T16:19:10.158Z,63.30
2017-10-06T16:21:37.626Z,64.20
2017-10-06T16:24:05.865Z,65.10
2017-10-06T16:26:34.077Z,64.50
2017-10-06T16:29:01.718Z,64.50
2017-10-06T16:31:29.149Z,65.10
2017-10-06T16:33:56.604Z,64.30
2017-10-06T16:36:24.053Z,63.90
2017-10-06T16:38:51.537Z,64.80
2017-10-06T16:41:19.005Z,65.30
2017-10-06T16:43:47.223Z,64.90
2017-10-06T16:46:14.662Z,65.60
2017-10-06T16:48:42.125Z,65.60
2017-10-06T16:51:09.572Z,65.60
2017-10-06T16:53:37.006Z,65.60
2017-10-06T16:56:04.482Z,65.40
2017-10-06T16:58:32.725Z,65.10
2017-10-06T17:01:00.946Z,66.50
2017-10-06T17:03:28.415Z,66.50
2017-10-06T17:05:55.950Z,66.20
2017-10-06T17:08:23.389Z,66.70
2017-10-06T17:10:50.842Z,66.80
2017-10-06T17:13:18.288Z,66.50
2017-10-06T17:15:45.733Z,67.90
2017-10-06T17:18:13.182Z,67.80
2017-10-06T17:20:40.624Z,67.60
2017-10-06T17:23:08.090Z,68.60
2017-10-06T17:25:36.296Z,68.70
2017-10-06T17:28:03.742Z,68.70
2017-10-06T17:30:31.201Z,68.10
2017-10-06T17:32:58.642Z,68.40
2017-10-06T17:35:26.092Z,68.40
2017-10-06T17:37:53.530Z,68.50
2017-10-06T17:40:21.050Z,68.70
2017-10-06T17:42:48.533Z,69.10
2017-10-06T17:45:16.069Z,69.40
2017-10-06T17:47:43.722Z,72.10
2017-10-06T17:50:11.260Z,70.10
2017-10-06T17:52:38.854Z,69.60
2017-10-06T17:55:06.334Z,70.30
2017-10-06T17:57:33.773Z,69.00
2017-10-06T18:00:01.306Z,70.00
2017-10-06T18:02:28.746Z,69.70
2017-10-06T18:04:56.975Z,70.30
2017-10-06T18:07:24.413Z,69.60
2017-10-06T18:09:51.871Z,70.40
2017-10-06T18:12:19.309Z,69.40
2017-10-06T18:14:46.749Z,69.50
2017-10-06T18:17:14.204Z,69.90
2017-10-06T18:19:41.666Z,69.50
2017-10-06T18:22:09.146Z,69.40
2017-10-06T18:24:36.582Z,69.00
2017-10-06T18:27:04.033Z,68.50
2017-10-06T18:29:31.471Z,68.40
2017-10-06T18:31:58.985Z,69.00
2017-10-06T18:34:26.481Z,69.10
2017-10-06T18:36:53.946Z,68.30
2017-10-06T18:39:21.396Z,68.80
2017-10-06T18:41:48.885Z,68.90
2017-10-06T18:44:16.338Z,69.30
2017-10-06T18:46:44.564Z,69.30
2017-10-06T18:49:12.002Z,69.30
2017-10-06T18:51:39.454Z,69.30
2017-10-06T18:54:06.897Z,70.10
2017-10-06T18:56:35.970Z,70.80
2017-10-06T18:59:03.429Z,70.20
2017-10-06T19:01:30.885Z,70.30
2017-10-06T19:03:58.342Z,70.00
2017-10-06T19:06:26.697Z,70.30
2017-10-06T19:08:54.139Z,70.30
2017-10-06T19:11:22.360Z,71.00
2017-10-06T19:13:49.833Z,70.90
2017-10-06T19:16:17.289Z,70.40
2017-10-06T19:18:45.529Z,70.70
2017-10-06T19:21:13.008Z,70.70
2017-10-06T19:23:40.520Z,70.40
2017-10-06T19:26:07.961Z,69.80
2017-10-06T19:28:35.405Z,70.30
2017-10-06T19:31:02.934Z,69.90
2017-10-06T19:33:30.380Z,69.80
2017-10-06T19:35:57.834Z,70.00
2017-10-06T19:38:25.284Z,70.70
2017-10-06T19:40:52.754Z,70.30
2017-10-06T19:43:20.225Z,69.80
2017-10-06T19:45:47.672Z,69.80
2017-10-06T19:48:15.921Z,70.40
2017-10-06T19:50:43.429Z,69.90
2017-10-06T19:53:11.636Z,70.40
2017-10-06T19:55:39.134Z,69.90
2017-10-06T19:58:07.351Z,69.80
2017-10-06T20:00:34.805Z,69.80
2017-10-06T20:03:02.253Z,70.40
2017-10-06T20:05:29.696Z,70.20
2017-10-06T20:07:57.162Z,70.60
2017-10-06T20:10:25.371Z,70.50
2017-10-06T20:12:52.853Z,70.40
2017-10-06T20:15:20.310Z,70.60
2017-10-06T20:17:48.533Z,71.40
2017-10-06T20:20:15.982Z,71.30
2017-10-06T20:22:43.436Z,71.00
2017-10-06T20:25:10.880Z,70.30
2017-10-06T20:27:39.161Z,70.20
2017-10-06T20:30:07.382Z,70.60
2017-10-06T20:32:34.841Z,70.20
2017-10-06T20:35:02.298Z,69.80
2017-10-06T20:37:29.740Z,70.30
2017-10-06T20:39:57.965Z,69.80
2017-10-06T20:42:25.505Z,69.60
2017-10-06T20:44:52.954Z,69.80
2017-10-06T20:47:20.400Z,69.80
2017-10-06T20:49:47.905Z,69.60
2017-10-06T20:52:16.099Z,70.50
2017-10-06T20:54:43.564Z,70.50
2017-10-06T20:57:11.009Z,69.80
2017-10-06T20:59:38.476Z,69.80
2017-10-06T21:02:06.722Z,69.90
2017-10-06T21:04:34.186Z,69.90
2017-10-06T21:07:02.386Z,69.60
2017-10-06T21:09:29.837Z,69.60
2017-10-06T21:11:57.282Z,69.80
2017-10-06T21:14:24.726Z,69.20
2017-10-06T21:16:52.169Z,69.00
2017-10-06T21:19:19.642Z,69.00
2017-10-06T21:21:47.093Z,69.80
2017-10-06T21:24:15.297Z,69.60
2017-10-06T21:26:42.746Z,69.70
2017-10-06T21:29:10.194Z,69.90
2017-10-06T21:31:37.656Z,70.50
2017-10-06T21:34:05.097Z,70.00
2017-10-06T21:36:32.558Z,70.70
2017-10-06T21:39:00.044Z,70.70
2017-10-06T21:41:27.506Z,70.40
2017-10-06T21:43:54.953Z,69.90
2017-10-06T21:46:22.400Z,70.20
2017-10-06T21:48:50.193Z,69.80
2017-10-06T21:51:17.624Z,70.50
2017-10-06T21:53:45.174Z,69.70
2017-10-06T21:56:13.388Z,70.10
2017-10-06T21:58:40.945Z,69.80
2017-10-06T22:01:08.417Z,69.90
2017-10-06T22:03:35.862Z,69.90
2017-10-06T22:06:03.315Z,69.90
2017-10-06T22:08:31.537Z,69.80
2017-10-06T22:10:58.978Z,69.80
2017-10-06T22:13:26.422Z,69.30
2017-10-06T22:15:53.881Z,69.80
2017-10-06T22:18:21.315Z,69.90
2017-10-06T22:20:48.776Z,70.10
2017-10-06T22:23:16.209Z,70.40
2017-10-06T22:25:43.656Z,69.90
2017-10-06T22:28:11.118Z,69.80
2017-10-06T22:30:39.330Z,70.90
2017-10-06T22:33:06.790Z,70.90
2017-10-06T22:35:34.242Z,70.20
2017-10-06T22:38:01.687Z,71.50
2017-10-06T22:40:29.110Z,71.50
2017-10-06T22:42:56.558Z,70.30
2017-10-06T22:45:23.992Z,70.60
2017-10-06T22:47:51.435Z,69.90
2017-10-06T22:50:18.881Z,70.40
2017-10-06T22:52:46.325Z,70.90
2017-10-06T22:55:13.756Z,70.10
2017-10-06T22:57:41.196Z,70.20
2017-10-06T23:00:08.648Z,70.00
2017-10-06T23:02:36.087Z,70.30
2017-10-06T23:05:03.532Z,69.80
2017-10-06T23:07:30.980Z,69.40
2017-10-06T23:09:58.411Z,69.80
2017-10-06T23:12:25.865Z,69.10
2017-10-06T23:14:53.301Z,69.50
2017-10-06T23:17:20.747Z,69.80
2017-10-06T23:19:48.203Z,69.60
2017-10-06T23:22:15.671Z,69.70
2017-10-06T23:24:43.087Z,69.90
2017-10-06T23:27:10.523Z,69.70
2017-10-06T23:29:37.973Z,70.30
2017-10-06T23:32:05.407Z,70.60
2017-10-06T23:34:32.853Z,70.90
2017-10-06T23:37:00.292Z,71.00
2017-10-06T23:39:27.741Z,71.10
2017-10-06T23:41:55.192Z,72.60
2017-10-06T23:44:22.636Z,71.70
2017-10-06T23:46:50.089Z,72.00
2017-10-06T23:49:17.528Z,72.50
2017-10-06T23:51:45.740Z,72.80
2017-10-06T23:54:13.184Z,72.90
2017-10-06T23:56:40.637Z,72.50
2017-10-06T23:59:08.089Z,72.50
